< < Back
Terminal Aerodrome Forecast


Current Version              Previous Versions:   1  2  3  4  5  6  7  8  9  

Terminal Aerodrome Forecast

893
FTUS44 KMRX 291940 AAA
TAFTYS
TAF AMD
KTYS 291940Z 2920/3018 23027G40KT 1SM TSRA BR BKN040CB OVC080
     FM292030 23009KT P6SM VCTS SCT040CB BKN150
     FM300000 VRB04KT P6SM SCT040 BKN250
     FM300900 00000KT 6SM BR BKN250
     FM301300 22008KT P6SM SCT040=



Latest METAR

181
SAUS80 KWBC 301000 RRA
MTRTYS
METAR KTYS 300953Z 05003KT 7SM BCFG FEW090 FEW200 17/16 A3015 RMK AO2
SLP201 T01670161 $


USA.gov is the U.S. government's official web portal to all federal, state and local government web resources and services.